• Join FlightAware (Why Join?)
  • Login
  • US Flag 
01:10AM EDT


 

Airport Tracker/Info


-or-


 

Live Flight TrackerFlight Track Log ✈ N360FE ✈ 10-Apr-2013 ✈ KMEM - KBWI

Flight Track Log - Related Links

Times and Time Zones

All times are in EDT time to prevent confusion due to time zone crossing. See the N360FE flight status page for this flight to view local times or setup timezone preferences in your user account.

Time Position Orientation Groundspeed Altitude Reporting Facility
EDT Latitude Longitude Course Direction KTS MPH feet Rate Location/Type
04:51PM 35.0167 -89.9667 180° South 152 175 1,200  Level KMEM
04:52PM 34.9833 -89.9667 180° South 173 199 2,200 1,620 Climbing KMEM
04:53PM 34.9500 -89.8833 116° Southeast 275 316 4,700 2,340 Climbing KMEM
04:54PM 34.9833 -89.8333 51° Northeast 294 338 6,900 2,280 Climbing KMEM
04:56PM 35.0533 -89.6367 66° East 340 391 11,200 1,800 Climbing Memphis Center
04:57PM 35.0983 -89.5119 66° East 345 397 12,600 1,620 Climbing Memphis Center
04:58PM 35.1475 -89.3869 64° Northeast 380 437 14,500 1,920 Climbing Memphis Center
04:59PM 35.1964 -89.2542 66° East 410 472 16,500 2,100 Climbing Memphis Center
05:00PM 35.2453 -89.1189 66° East 423 487 18,800 1,860 Climbing Memphis Center
05:01PM 35.2981 -88.9833 64° Northeast 423 487 20,300 1,500 Climbing Memphis Center
05:02PM 35.3528 -88.8422 65° Northeast 437 503 21,800 1,500 Climbing Memphis Center
05:03PM 35.4050 -88.6989 66° East 453 521 23,300 1,320 Climbing Memphis Center
05:04PM 35.4533 -88.5653 66° East 458 527 24,500 1,200 Climbing Memphis Center
05:05PM 35.5094 -88.4161 65° Northeast 468 539 25,800 1,260 Climbing Memphis Center
05:06PM 35.5675 -88.2617 65° Northeast 473 544 27,100 780 Climbing Memphis Center
05:11PM 35.8860 -87.3900 65° Northeast 524 603 31,100 720 Climbing FlightAware
05:12PM 35.9240 -87.2850 66° East 518 596 31,700 1,020 Climbing FlightAware
05:13PM 35.9670 -87.1650 66° East 506 582 32,600 1,020 Climbing FlightAware
05:13PM 36.0020 -87.0640 67° East 505 581 33,200 900 Climbing FlightAware
05:14PM 36.0400 -86.9590 66° East 504 580 33,800 540 Climbing FlightAware
05:15PM 36.0840 -86.8320 67° East 501 577 34,000 240 Climbing FlightAware
05:15PM 36.1231 -86.7245 66° East 502 578 34,200 720 Climbing FlightAware ADS-B
05:16PM 36.1544 -86.6354 66° East 500 575 34,900 600 Climbing FlightAware ADS-B
05:17PM 36.1874 -86.5321 68° East 496 571 35,000 60 Climbing FlightAware ADS-B
05:18PM 36.2371 -86.3753 69° East 497 572 35,000  Level FlightAware ADS-B
05:18PM 36.2690 -86.2790 68° East 507 583 35,000  Level FlightAware
05:19PM 36.2864 -86.2220 69° East 512 589 35,000  Level FlightAware ADS-B
05:19PM 36.3133 -86.1403 68° East 510 587 35,000  Level FlightAware ADS-B
05:20PM 36.3430 -86.0456 69° East 506 582 35,000  Level FlightAware ADS-B
05:20PM 36.3760 -85.9410 69° East 500 575 35,000  Level FlightAware
05:21PM 36.4220 -85.7990 68° East 499 574 35,000  Level FlightAware
05:22PM 36.4492 -85.7107 69° East 503 579 35,000  Level FlightAware ADS-B
05:22PM 36.4753 -85.6276 69° East 500 575 35,000  Level FlightAware ADS-B
05:23PM 36.5014 -85.5446 69° East 501 577 35,000  Level FlightAware ADS-B
05:23PM 36.5273 -85.4617 69° East 500 575 35,000  Level FlightAware ADS-B
05:24PM 36.5570 -85.3651 69° East 500 575 35,000  Level FlightAware ADS-B
05:25PM 36.5927 -85.2499 69° East 500 575 35,000  Level FlightAware ADS-B
05:26PM 36.6479 -85.0728 69° East 500 575 35,000  Level FlightAware ADS-B
05:26PM 36.6810 -84.9655 69° East 499 574 35,000  Level FlightAware ADS-B
05:27PM 36.7078 -84.8772 69° East 498 573 35,000  Level FlightAware ADS-B
05:27PM 36.7362 -84.7832 69° East 499 574 35,000  Level FlightAware ADS-B
05:28PM 36.7624 -84.6971 69° East 499 574 35,000  Level FlightAware ADS-B
05:29PM 36.7928 -84.5975 69° East 500 575 35,000  Level FlightAware ADS-B
05:29PM 36.8209 -84.5056 69° East 501 577 35,000  Level FlightAware ADS-B
05:30PM 36.8460 -84.4219 69° East 502 578 35,000  Level FlightAware ADS-B
05:30PM 36.8711 -84.3380 69° East 502 578 35,000  Level FlightAware ADS-B
05:31PM 36.8957 -84.2565 69° East 503 579 35,000  Level FlightAware ADS-B
05:31PM 36.9211 -84.1722 69° East 503 579 35,000  Level FlightAware ADS-B
05:32PM 36.9455 -84.0875 70° East 505 581 35,000  Level FlightAware ADS-B
05:32PM 36.9711 -84.0028 69° East 505 581 35,000 60 Level FlightAware ADS-B
05:33PM 36.9960 -83.9178 70° East 507 583 35,100 60 Climbing FlightAware ADS-B
05:34PM 37.0375 -83.7774 70° East 507 583 35,100  Level FlightAware ADS-B
05:34PM 37.0628 -83.6953 69° East 506 582 35,100 -120 Level FlightAware ADS-B
05:35PM 37.0879 -83.6106 70° East 506 582 35,000 -120 Descending FlightAware ADS-B
05:35PM 37.1191 -83.5063 69° East 506 582 35,000  Level FlightAware ADS-B
05:36PM 37.1472 -83.4132 69° East 506 582 35,000  Level FlightAware ADS-B
05:36PM 37.1719 -83.3281 70° East 506 582 35,000  Level FlightAware ADS-B
05:37PM 37.2030 -83.2236 69° East 505 581 35,000 60 Level FlightAware ADS-B
05:38PM 37.2375 -83.1058 70° East 502 578 35,100  Climbing FlightAware ADS-B
05:38PM 37.2648 -83.0135 70° East 500 575 35,000  Descending FlightAware ADS-B
05:44PM 37.5428 -82.0531 70° East 499 574 35,100  Climbing FlightAware ADS-B
05:45PM 37.5680 -81.9657 70° East 499 574 35,100  Level FlightAware ADS-B
05:45PM 37.5929 -81.8779 70° East 500 575 35,100 -120 Level FlightAware ADS-B
05:46PM 37.6165 -81.7932 71° East 498 573 35,000 -120 Descending FlightAware ADS-B
05:46PM 37.6470 -81.6838 71° East 498 573 35,000  Level FlightAware ADS-B
05:47PM 37.6713 -81.5992 70° East 498 573 35,000  Level FlightAware ADS-B
05:48PM 37.6989 -81.5006 70° East 497 572 35,000  Level FlightAware ADS-B
05:48PM 37.7275 -81.3967 71° East 497 572 35,000  Level FlightAware ADS-B
05:49PM 37.7502 -81.3145 71° East 497 572 35,000  Level FlightAware ADS-B
05:49PM 37.7734 -81.2296 71° East 497 572 35,000  Level FlightAware ADS-B
05:50PM 37.8118 -81.0896 71° East 497 572 35,000  Level FlightAware ADS-B
05:51PM 37.8725 -80.8671 71° East 498 573 35,100  Climbing FlightAware ADS-B
05:52PM 37.8844 -80.8211 71° East 497 572 35,000 -120 Descending Indianapolis Center
05:53PM 37.9211 -80.6856 71° East 491 565 35,000  Level Washington Center
05:54PM 37.9631 -80.5331 71° East 496 571 35,000  Level Washington Center
05:55PM 38.0092 -80.3700 70° East 496 571 35,000  Level Washington Center
05:56PM 38.0533 -80.2042 71° East 496 571 35,000  Level Washington Center
05:57PM 38.0972 -80.0378 71° East 496 571 35,000  Level Washington Center
05:58PM 38.1456 -79.8558 71° East 496 571 35,000  Level Washington Center
05:59PM 38.1886 -79.6919 71° East 496 571 35,000 -360 Level Washington Center
06:00PM 38.2317 -79.5278 71° East 496 571 34,300 -1,500 Descending Washington Center
06:01PM 38.2747 -79.3608 72° East 496 571 32,100 -2,280 Descending Washington Center
06:02PM 38.3150 -79.2014 72° East 491 565 29,800 -2,160 Descending Washington Center
06:03PM 38.3503 -79.0653 72° East 467 537 27,800 -1,260 Descending Washington Center
06:08PM 38.5450 -78.2590 72° East 425 489 21,900 -1,140 Descending FlightAware
06:09PM 38.5700 -78.1590 72° East 421 484 21,200 -660 Descending FlightAware
06:09PM 38.5890 -78.0820 72° East 420 483 21,100 -1,080 Descending FlightAware
06:10PM 38.6120 -77.9850 73° East 405 466 19,900 -1,440 Descending FlightAware
06:11PM 38.6400 -77.8630 74° East 404 465 19,000 -960 Descending FlightAware
06:12PM 38.6470 -77.7620 85° East 406 467 18,400 -840 Descending FlightAware
06:12PM 38.6530 -77.6740 85° East 404 465 17,900 -840 Descending FlightAware
06:13PM 38.6610 -77.5340 86° East 398 458 17,100 -900 Descending FlightAware
06:14PM 38.6670 -77.4260 86° East 396 456 16,400 -780 Descending FlightAware
06:14PM 38.6720 -77.3490 85° East 394 453 16,100 -360 Descending FlightAware
06:15PM 38.6780 -77.2530 85° East 398 458 16,000 -1,500 Descending FlightAware
06:16PM 38.6850 -77.1350 86° East 404 465 13,900 -2,520 Descending FlightAware
06:17PM 38.6900 -77.0370 86° East 403 464 12,300 -1,920 Descending FlightAware
06:17PM 38.6940 -76.9520 87° East 372 428 11,400 -1,380 Descending FlightAware
06:18PM 38.6990 -76.8620 86° East 337 388 10,400 -1,380 Descending FlightAware
06:18PM 38.7020 -76.8030 86° East 323 372 9,800 -1,320 Descending FlightAware
06:19PM 38.7070 -76.7510 83° East 317 365 9,200 -1,320 Descending FlightAware
06:19PM 38.7280 -76.6970 63° Northeast 306 352 8,500 -1,440 Descending FlightAware
06:20PM 38.7460 -76.6560 61° Northeast 301 346 7,900 -1,440 Descending FlightAware
06:20PM 38.7650 -76.6090 63° Northeast 297 342 7,200 -1,440 Descending FlightAware
06:21PM 38.7850 -76.5640 60° Northeast 294 338 6,500 -1,200 Descending FlightAware
06:21PM 38.8010 -76.5380 52° Northeast 286 329 6,200 -600 Descending FlightAware
06:22PM 38.8130 -76.5300 27° Northeast 280 322 6,100 -720 Descending FlightAware
06:22PM 38.8530 -76.5330 357° North 253 291 5,700 -1,320 Descending FlightAware
06:22PM 38.8820 -76.5430 345° North 250 288 5,000 -1,380 Descending FlightAware
06:23PM 38.8960 -76.5470 347° North 250 288 4,800 -1,200 Descending FlightAware
06:23PM 38.9290 -76.5560 348° North 249 287 4,200 -780 Descending FlightAware
06:24PM 38.9600 -76.5650 347° North 249 287 4,100 -360 Descending FlightAware
06:24PM 38.9890 -76.5740 346° North 252 290 3,900 -780 Descending FlightAware
06:24PM 39.0270 -76.5850 347° North 236 272 3,400 -1,020 Descending FlightAware
06:25PM 39.0540 -76.5930 347° North 231 266 2,900 -1,080 Descending FlightAware
06:25PM 39.0680 -76.5970 347° North 232 267 2,700 -360 Descending FlightAware
06:26PM 39.0920 -76.6040 347° North 232 267 2,700 -1,800 Level FlightAware
06:26PM 39.1167 -76.6167 347° North 217 250 1,400 -1,800 Descending Potomac TRACON
06:27PM 39.1500 -76.6500 322° Northwest 165 190 400 -1,020 Descending Potomac TRACON
06:29PM 39.1667 -76.6667 339° North  Level FlightAware Approximate
06:36PM 39.1754 -76.6683 339° North  Level Estimated